createdAt,value
2023-11-18T00:00:55.892Z,975.63
2023-11-18T00:01:56.180Z,975.66
2023-11-18T00:02:56.415Z,975.64
2023-11-18T00:03:56.752Z,975.66
2023-11-18T00:04:57.025Z,975.67
2023-11-18T00:05:57.203Z,975.64
2023-11-18T00:06:57.449Z,975.71
2023-11-18T00:07:57.709Z,975.70
2023-11-18T00:08:57.924Z,975.71
2023-11-18T00:09:58.169Z,975.68
2023-11-18T00:10:58.441Z,975.64
2023-11-18T00:11:58.791Z,975.76
2023-11-18T00:12:59.032Z,975.69
2023-11-18T00:13:59.298Z,975.77
2023-11-18T00:14:59.524Z,975.87
2023-11-18T00:15:59.813Z,975.88
2023-11-18T00:17:00.048Z,975.81
2023-11-18T00:18:00.346Z,975.79
2023-11-18T00:19:00.548Z,975.76
2023-11-18T00:20:00.898Z,975.85
2023-11-18T00:21:01.079Z,975.88
2023-11-18T00:22:01.351Z,975.82
2023-11-18T00:23:01.600Z,975.79
2023-11-18T00:24:01.934Z,975.76
2023-11-18T00:25:02.159Z,975.87
2023-11-18T00:26:02.592Z,975.99
2023-11-18T00:27:02.774Z,975.99
2023-11-18T00:28:03.016Z,975.97
2023-11-18T00:29:03.268Z,975.94
2023-11-18T00:30:03.640Z,975.96
2023-11-18T00:31:03.983Z,975.99
2023-11-18T00:32:04.364Z,976.05
2023-11-18T00:33:04.550Z,976.05
2023-11-18T00:34:04.749Z,976.10
2023-11-18T00:35:05.001Z,976.07
2023-11-18T00:36:05.381Z,976.04
2023-11-18T00:37:05.694Z,976.10
2023-11-18T00:38:05.950Z,976.05
2023-11-18T00:39:06.194Z,976.09
2023-11-18T00:40:06.419Z,976.06
2023-11-18T00:41:06.816Z,976.05
2023-11-18T00:42:07.076Z,976.01
2023-11-18T00:43:07.301Z,976.06
2023-11-18T00:44:07.555Z,976.01
2023-11-18T00:45:07.784Z,976.03
2023-11-18T00:46:08.090Z,976.03
2023-11-18T00:47:08.393Z,976.05
2023-11-18T00:48:08.590Z,975.99
2023-11-18T00:49:08.873Z,976.05
2023-11-18T00:50:09.150Z,976.06
2023-11-18T00:51:09.391Z,976.06
2023-11-18T00:52:09.591Z,976.07
2023-11-18T00:53:09.864Z,976.06
2023-11-18T00:54:10.064Z,976.05
2023-11-18T00:55:10.445Z,976.07
2023-11-18T00:56:10.661Z,976.02
2023-11-18T00:57:10.922Z,976.06
2023-11-18T00:58:11.157Z,976.09
2023-11-18T00:59:11.464Z,976.09
2023-11-18T01:00:11.652Z,976.07
2023-11-18T01:01:12.043Z,976.10
2023-11-18T01:02:12.469Z,976.10
2023-11-18T01:03:12.612Z,976.11
2023-11-18T01:04:12.811Z,976.09
2023-11-18T01:05:13.061Z,976.10
2023-11-18T01:06:13.307Z,976.09
2023-11-18T01:07:13.570Z,976.10
2023-11-18T01:08:13.794Z,976.11
2023-11-18T01:09:14.039Z,976.14
2023-11-18T01:10:14.285Z,976.09
2023-11-18T01:11:14.583Z,976.10
2023-11-18T01:12:15.096Z,976.02
2023-11-18T01:13:15.475Z,976.03
2023-11-18T01:14:15.879Z,976.06
2023-11-18T01:15:16.101Z,976.03
2023-11-18T01:16:15.900Z,976.05
2023-11-18T01:17:16.144Z,976.05
2023-11-18T01:18:16.462Z,976.09
2023-11-18T01:19:16.679Z,976.07
2023-11-18T01:20:16.924Z,976.05
2023-11-18T01:21:17.288Z,976.08
2023-11-18T01:22:17.520Z,976.03
2023-11-18T01:23:17.767Z,976.04
2023-11-18T01:24:18.030Z,976.04
2023-11-18T01:25:18.278Z,976.06
2023-11-18T01:26:18.513Z,976.05
2023-11-18T01:27:18.874Z,976.05
2023-11-18T01:28:19.116Z,976.03
2023-11-18T01:29:19.485Z,976.09
2023-11-18T01:30:19.700Z,976.06
2023-11-18T01:31:19.999Z,976.08
2023-11-18T01:32:20.404Z,976.10
2023-11-18T01:33:20.595Z,976.07
2023-11-18T01:34:20.833Z,976.08
2023-11-18T01:35:21.094Z,976.07
2023-11-18T01:36:21.304Z,976.07
2023-11-18T01:37:21.544Z,976.03
2023-11-18T01:38:21.834Z,976.04
2023-11-18T01:39:22.252Z,976.09
2023-11-18T01:40:22.307Z,976.08
2023-11-18T01:41:22.676Z,976.08
2023-11-18T01:42:22.905Z,976.09
2023-11-18T01:43:23.153Z,976.14
2023-11-18T01:44:23.404Z,976.10
2023-11-18T01:45:23.640Z,976.04
2023-11-18T01:46:23.935Z,976.09
2023-11-18T01:47:24.168Z,976.08
2023-11-18T01:48:24.372Z,976.12
2023-11-18T01:49:24.641Z,976.10
2023-11-18T01:50:24.871Z,976.15
2023-11-18T01:51:25.137Z,976.12
2023-11-18T01:52:25.379Z,976.09
2023-11-18T01:53:25.625Z,976.06
2023-11-18T01:54:25.883Z,976.11
2023-11-18T01:55:26.141Z,976.10
2023-11-18T01:56:26.398Z,976.10
2023-11-18T01:57:26.639Z,976.09
2023-11-18T01:58:26.920Z,976.13
2023-11-18T01:59:27.138Z,976.17
2023-11-18T02:00:27.372Z,976.15
2023-11-18T02:01:27.802Z,976.12
2023-11-18T02:02:28.121Z,976.16
2023-11-18T02:03:28.565Z,976.15
2023-11-18T02:04:28.611Z,976.12
2023-11-18T02:05:28.823Z,976.11
2023-11-18T02:06:29.044Z,976.10
2023-11-18T02:07:29.333Z,976.09
2023-11-18T02:08:29.532Z,976.09
2023-11-18T02:09:30.328Z,976.07
2023-11-18T02:10:30.002Z,976.08
2023-11-18T02:11:30.352Z,976.12
2023-11-18T02:12:30.600Z,976.15
2023-11-18T02:13:30.882Z,976.16
2023-11-18T02:14:31.071Z,976.12
2023-11-18T02:15:31.429Z,976.16
2023-11-18T02:16:31.713Z,976.13
2023-11-18T02:17:31.997Z,976.15
2023-11-18T02:18:32.377Z,976.12
2023-11-18T02:19:32.624Z,976.17
2023-11-18T02:20:32.876Z,976.18
2023-11-18T02:21:33.211Z,976.21
2023-11-18T02:22:33.473Z,976.20
2023-11-18T02:23:33.741Z,976.20
2023-11-18T02:24:34.102Z,976.19
2023-11-18T02:25:34.546Z,976.19
2023-11-18T02:26:34.880Z,976.18
2023-11-18T02:27:35.401Z,976.16
2023-11-18T02:28:35.770Z,976.20
2023-11-18T02:29:36.247Z,976.19
2023-11-18T02:30:36.600Z,976.19
2023-11-18T02:31:36.149Z,976.19
2023-11-18T02:32:36.471Z,976.16
2023-11-18T02:33:36.625Z,976.16
2023-11-18T02:34:36.901Z,976.18
2023-11-18T02:35:37.110Z,976.18
2023-11-18T02:36:37.437Z,976.17
2023-11-18T02:37:37.714Z,976.16
2023-11-18T02:38:39.659Z,976.14
2023-11-18T02:39:38.275Z,976.18
2023-11-18T02:40:38.523Z,976.12
2023-11-18T02:41:38.710Z,976.14
2023-11-18T02:42:38.975Z,976.14
2023-11-18T02:43:39.206Z,976.12
2023-11-18T02:44:39.415Z,976.16
2023-11-18T02:45:39.786Z,976.14
2023-11-18T02:46:40.086Z,976.16
2023-11-18T02:47:40.324Z,976.16
2023-11-18T02:48:40.529Z,976.11
2023-11-18T02:49:40.808Z,976.12
2023-11-18T02:50:41.005Z,976.16
2023-11-18T02:51:41.374Z,976.10
2023-11-18T02:52:41.645Z,976.14
2023-11-18T02:53:41.868Z,976.17
2023-11-18T02:54:42.091Z,976.14
2023-11-18T02:55:42.522Z,976.15
2023-11-18T02:56:42.715Z,976.15
2023-11-18T02:57:42.985Z,976.14
2023-11-18T02:58:43.223Z,976.16
2023-11-18T02:59:43.446Z,976.13
2023-11-18T03:00:43.670Z,976.12
2023-11-18T03:01:44.092Z,976.15
2023-11-18T03:02:44.403Z,976.16
2023-11-18T03:03:44.645Z,976.13
2023-11-18T03:04:44.860Z,976.14
2023-11-18T03:05:45.103Z,976.13
2023-11-18T03:06:45.333Z,976.13
2023-11-18T03:07:45.924Z,976.14
2023-11-18T03:08:45.941Z,976.20
2023-11-18T03:09:46.294Z,976.16
2023-11-18T03:10:46.543Z,976.22
2023-11-18T03:11:46.911Z,976.19
2023-11-18T03:12:47.134Z,976.21
2023-11-18T03:13:47.404Z,976.20
2023-11-18T03:14:47.608Z,976.18
2023-11-18T03:15:47.855Z,976.19
2023-11-18T03:16:48.163Z,976.23
2023-11-18T03:17:48.408Z,976.20
2023-11-18T03:18:48.624Z,976.20
2023-11-18T03:19:49.030Z,976.23
2023-11-18T03:20:49.226Z,976.23
2023-11-18T03:21:49.641Z,976.24
2023-11-18T03:22:49.907Z,976.20
2023-11-18T03:23:50.229Z,976.19
2023-11-18T03:24:50.474Z,976.21
2023-11-18T03:25:50.738Z,976.21
2023-11-18T03:26:50.943Z,976.19
2023-11-18T03:27:51.311Z,976.23
2023-11-18T03:28:51.555Z,976.25
2023-11-18T03:29:53.687Z,976.28
2023-11-18T03:30:52.211Z,976.28
2023-11-18T03:31:52.457Z,976.30
2023-11-18T03:32:52.730Z,976.32
2023-11-18T03:33:53.092Z,976.25
2023-11-18T03:34:53.331Z,976.26
2023-11-18T03:35:53.672Z,976.31
2023-11-18T03:36:53.913Z,976.30
2023-11-18T03:37:54.382Z,976.33
2023-11-18T03:38:54.565Z,976.31
2023-11-18T03:39:55.099Z,976.33
2023-11-18T03:40:55.547Z,976.36
2023-11-18T03:41:56.124Z,976.33
2023-11-18T03:42:56.563Z,976.33
2023-11-18T03:43:56.914Z,976.36
2023-11-18T03:44:56.312Z,976.35
2023-11-18T03:45:56.547Z,976.38
2023-11-18T03:46:56.811Z,976.37
2023-11-18T03:47:57.250Z,976.36
2023-11-18T03:48:57.437Z,976.37
2023-11-18T03:49:57.832Z,976.38
2023-11-18T03:50:58.052Z,976.38
2023-11-18T03:51:58.414Z,976.41
2023-11-18T03:52:58.691Z,976.40
2023-11-18T03:53:58.894Z,976.42
2023-11-18T03:54:59.127Z,976.41
2023-11-18T03:55:59.539Z,976.41
2023-11-18T03:56:59.726Z,976.46
2023-11-18T03:58:00.131Z,976.45
2023-11-18T03:59:00.381Z,976.43
2023-11-18T04:00:00.610Z,976.51
2023-11-18T04:01:00.829Z,976.55
2023-11-18T04:02:01.269Z,976.56
2023-11-18T04:03:01.504Z,976.53
2023-11-18T04:04:01.944Z,976.57
2023-11-18T04:05:02.064Z,976.56
2023-11-18T04:06:02.298Z,976.58
2023-11-18T04:07:02.546Z,976.57
2023-11-18T04:08:02.826Z,976.55
2023-11-18T04:09:03.005Z,976.55
2023-11-18T04:10:03.385Z,976.57
2023-11-18T04:11:03.634Z,976.56
2023-11-18T04:12:03.989Z,976.58
2023-11-18T04:13:04.220Z,976.56
2023-11-18T04:14:04.523Z,976.61
2023-11-18T04:15:04.743Z,976.58
2023-11-18T04:16:05.092Z,976.60
2023-11-18T04:17:05.462Z,976.62
2023-11-18T04:18:05.721Z,976.62
2023-11-18T04:19:05.932Z,976.63
2023-11-18T04:20:06.249Z,976.62
2023-11-18T04:21:06.443Z,976.61
2023-11-18T04:22:06.820Z,976.63
2023-11-18T04:23:07.102Z,976.64
2023-11-18T04:24:07.364Z,976.64
2023-11-18T04:25:07.648Z,976.64
2023-11-18T04:26:07.871Z,976.63
2023-11-18T04:27:08.086Z,976.64
2023-11-18T04:28:08.459Z,976.68
2023-11-18T04:29:08.692Z,976.75
2023-11-18T04:30:09.040Z,976.72
2023-11-18T04:31:09.312Z,976.73
2023-11-18T04:32:09.680Z,976.73
2023-11-18T04:33:09.943Z,976.74
2023-11-18T04:34:10.256Z,976.74
2023-11-18T04:35:10.529Z,976.74
2023-11-18T04:36:10.756Z,976.75
2023-11-18T04:37:11.013Z,976.73
2023-11-18T04:38:11.378Z,976.72
2023-11-18T04:39:11.612Z,976.74
2023-11-18T04:40:11.888Z,976.74
2023-11-18T04:41:12.141Z,976.72
2023-11-18T04:42:12.342Z,976.75
2023-11-18T04:43:12.569Z,976.77
2023-11-18T04:44:12.900Z,976.79
2023-11-18T04:45:13.072Z,976.79
2023-11-18T04:46:13.436Z,976.75
2023-11-18T04:47:13.723Z,976.76
2023-11-18T04:48:13.997Z,976.74
2023-11-18T04:49:14.262Z,976.75
2023-11-18T04:50:14.549Z,976.72
2023-11-18T04:51:14.737Z,976.77
2023-11-18T04:52:14.973Z,976.79
2023-11-18T04:53:15.255Z,976.74
2023-11-18T04:54:15.443Z,976.76
2023-11-18T04:55:16.303Z,976.80
2023-11-18T04:56:16.809Z,976.82
2023-11-18T04:57:16.252Z,976.83
2023-11-18T04:58:16.494Z,976.85
2023-11-18T04:59:16.743Z,976.86
2023-11-18T05:00:16.971Z,976.84
2023-11-18T05:01:17.392Z,976.84
2023-11-18T05:02:17.726Z,976.86
2023-11-18T05:03:18.016Z,976.85
2023-11-18T05:04:18.199Z,976.82
2023-11-18T05:05:18.641Z,976.87
2023-11-18T05:06:18.756Z,976.87
2023-11-18T05:07:19.113Z,976.86
2023-11-18T05:08:19.383Z,976.86
2023-11-18T05:09:19.751Z,976.89
2023-11-18T05:10:19.922Z,976.88
2023-11-18T05:11:20.288Z,976.87
2023-11-18T05:12:20.522Z,976.87
2023-11-18T05:13:20.901Z,976.88
2023-11-18T05:14:21.114Z,976.88
2023-11-18T05:15:21.509Z,976.85
2023-11-18T05:16:21.728Z,976.89
2023-11-18T05:17:22.144Z,976.93
2023-11-18T05:18:22.455Z,976.91
2023-11-18T05:19:22.661Z,976.89
2023-11-18T05:20:22.901Z,976.93
2023-11-18T05:21:23.265Z,976.93
2023-11-18T05:22:23.528Z,976.95
2023-11-18T05:23:23.896Z,976.97
2023-11-18T05:24:24.115Z,976.94
2023-11-18T05:25:24.488Z,976.99
2023-11-18T05:26:24.715Z,976.97
2023-11-18T05:27:25.088Z,976.95
2023-11-18T05:28:25.339Z,976.96
2023-11-18T05:29:25.589Z,977.01
2023-11-18T05:30:25.815Z,977.00
2023-11-18T05:31:26.054Z,976.97
2023-11-18T05:32:26.273Z,976.99
2023-11-18T05:33:26.644Z,977.01
2023-11-18T05:34:26.865Z,976.95
2023-11-18T05:35:27.232Z,976.96
2023-11-18T05:36:27.463Z,977.01
2023-11-18T05:37:27.822Z,977.00
2023-11-18T05:38:28.053Z,977.02
2023-11-18T05:39:28.299Z,976.95
2023-11-18T05:40:28.515Z,976.97
2023-11-18T05:41:29.267Z,977.02
2023-11-18T05:42:32.106Z,977.00
2023-11-18T05:43:29.499Z,976.98
2023-11-18T05:44:29.691Z,977.03
2023-11-18T05:45:29.935Z,977.06
2023-11-18T05:46:30.212Z,977.07
2023-11-18T05:47:30.505Z,977.13
2023-11-18T05:48:30.696Z,977.08
2023-11-18T05:49:30.943Z,977.10
2023-11-18T05:50:31.175Z,977.10
2023-11-18T05:51:31.545Z,977.10
2023-11-18T05:52:31.779Z,977.10
2023-11-18T05:53:34.461Z,977.07
2023-11-18T05:54:32.346Z,977.12
2023-11-18T05:55:32.596Z,977.13
2023-11-18T05:56:32.827Z,977.14
2023-11-18T05:57:33.198Z,977.16
2023-11-18T05:58:33.439Z,977.14
2023-11-18T05:59:33.687Z,977.16
2023-11-18T06:00:39.307Z,977.15
2023-11-18T06:01:35.208Z,977.20
2023-11-18T06:02:34.595Z,977.20
2023-11-18T06:03:34.847Z,977.22
2023-11-18T06:04:35.145Z,977.23
2023-11-18T06:05:35.352Z,977.23
2023-11-18T06:06:35.580Z,977.23
2023-11-18T06:07:35.949Z,977.21
2023-11-18T06:08:36.165Z,977.24
2023-11-18T06:09:36.413Z,977.21
2023-11-18T06:10:36.714Z,977.19
2023-11-18T06:11:36.911Z,977.22
2023-11-18T06:12:37.140Z,977.17
2023-11-18T06:13:37.525Z,977.19
2023-11-18T06:14:37.749Z,977.21
2023-11-18T06:15:38.121Z,977.23
2023-11-18T06:16:41.446Z,977.21
2023-11-18T06:17:38.844Z,977.23
2023-11-18T06:18:38.973Z,977.23
2023-11-18T06:19:39.205Z,977.24
2023-11-18T06:20:39.676Z,977.25
2023-11-18T06:21:39.742Z,977.26
2023-11-18T06:22:39.984Z,977.24
2023-11-18T06:23:40.243Z,977.22
2023-11-18T06:24:40.535Z,977.26
2023-11-18T06:25:40.835Z,977.28
2023-11-18T06:26:41.040Z,977.28
2023-11-18T06:27:41.279Z,977.32
2023-11-18T06:28:41.587Z,977.32
2023-11-18T06:29:41.787Z,977.28
2023-11-18T06:30:42.025Z,977.33
2023-11-18T06:31:42.330Z,977.33
2023-11-18T06:32:42.544Z,977.34
2023-11-18T06:33:42.879Z,977.36
2023-11-18T06:34:43.081Z,977.32
2023-11-18T06:35:43.337Z,977.34
2023-11-18T06:36:43.589Z,977.36
2023-11-18T06:37:43.854Z,977.34
2023-11-18T06:38:44.075Z,977.35
2023-11-18T06:39:44.335Z,977.38
2023-11-18T06:40:44.727Z,977.40
2023-11-18T06:41:44.910Z,977.41
2023-11-18T06:42:45.149Z,977.41
2023-11-18T06:43:45.422Z,977.44
2023-11-18T06:44:45.651Z,977.41
2023-11-18T06:45:45.898Z,977.42
2023-11-18T06:46:46.195Z,977.45
2023-11-18T06:47:47.091Z,977.50
2023-11-18T06:48:46.726Z,977.47
2023-11-18T06:49:47.008Z,977.46
2023-11-18T06:50:47.198Z,977.38
2023-11-18T06:51:47.572Z,977.40
2023-11-18T06:52:48.253Z,977.41
2023-11-18T06:53:48.100Z,977.41
2023-11-18T06:54:48.332Z,977.43
2023-11-18T06:55:48.598Z,977.40
2023-11-18T06:56:48.810Z,977.42
2023-11-18T06:57:49.097Z,977.41
2023-11-18T06:58:49.340Z,977.41
2023-11-18T06:59:49.597Z,977.45
2023-11-18T07:00:49.836Z,977.43
2023-11-18T07:01:50.254Z,977.39
2023-11-18T07:02:50.596Z,977.42
2023-11-18T07:03:50.783Z,977.43
2023-11-18T07:04:51.016Z,977.43
2023-11-18T07:05:51.214Z,977.42
2023-11-18T07:06:51.568Z,977.39
2023-11-18T07:07:51.808Z,977.40
2023-11-18T07:08:52.182Z,977.43
2023-11-18T07:09:52.647Z,977.41
2023-11-18T07:10:52.728Z,977.41
2023-11-18T07:11:52.935Z,977.43
2023-11-18T07:12:53.182Z,977.44
2023-11-18T07:13:53.421Z,977.43
2023-11-18T07:14:53.663Z,977.44
2023-11-18T07:15:53.947Z,977.48
2023-11-18T07:16:54.243Z,977.50
2023-11-18T07:17:56.971Z,977.50
2023-11-18T07:18:54.695Z,977.45
2023-11-18T07:19:54.952Z,977.44
2023-11-18T07:20:55.197Z,977.43
2023-11-18T07:21:55.420Z,977.46
2023-11-18T07:22:55.712Z,977.45
2023-11-18T07:23:55.918Z,977.51
2023-11-18T07:24:57.693Z,977.46
2023-11-18T07:25:56.538Z,977.49
2023-11-18T07:26:56.750Z,977.46
2023-11-18T07:27:56.982Z,977.48
2023-11-18T07:28:57.389Z,977.48
2023-11-18T07:29:57.590Z,977.52
2023-11-18T07:30:57.991Z,977.50
2023-11-18T07:31:58.235Z,977.51
2023-11-18T07:32:58.491Z,977.55
2023-11-18T07:33:58.702Z,977.50
2023-11-18T07:34:59.001Z,977.52
2023-11-18T07:35:59.196Z,977.52
2023-11-18T07:36:59.434Z,977.54
2023-11-18T07:37:59.695Z,977.56
2023-11-18T07:39:00.048Z,977.54
2023-11-18T07:40:00.255Z,977.54
2023-11-18T07:41:00.680Z,977.54
2023-11-18T07:42:00.865Z,977.57
2023-11-18T07:43:01.116Z,977.54
2023-11-18T07:44:01.769Z,977.56
2023-11-18T07:45:01.679Z,977.52
2023-11-18T07:46:01.956Z,977.57
2023-11-18T07:47:02.281Z,977.53
2023-11-18T07:48:02.537Z,977.52
2023-11-18T07:49:03.160Z,977.54
2023-11-18T07:50:03.056Z,977.54
2023-11-18T07:51:03.294Z,977.58
2023-11-18T07:52:03.505Z,977.55
2023-11-18T07:53:04.001Z,977.57
2023-11-18T07:54:04.148Z,977.56
2023-11-18T07:55:04.413Z,977.57
2023-11-18T07:56:04.674Z,977.58
2023-11-18T07:57:04.888Z,977.57
2023-11-18T07:58:05.129Z,977.57
2023-11-18T07:59:05.429Z,977.56
2023-11-18T08:00:05.626Z,977.58
2023-11-18T08:01:05.909Z,977.56
2023-11-18T08:02:07.296Z,977.57
2023-11-18T08:03:06.480Z,977.55
2023-11-18T08:04:06.727Z,977.58
2023-11-18T08:05:06.993Z,977.58
2023-11-18T08:06:07.201Z,977.56
2023-11-18T08:07:07.450Z,977.58
2023-11-18T08:08:07.722Z,977.59
2023-11-18T08:09:07.953Z,977.64
2023-11-18T08:10:08.177Z,977.65
2023-11-18T08:11:08.637Z,977.64
2023-11-18T08:12:08.827Z,977.66
2023-11-18T08:13:09.154Z,977.70
2023-11-18T08:14:09.348Z,977.72
2023-11-18T08:15:09.695Z,977.71
2023-11-18T08:16:10.401Z,977.75
2023-11-18T08:17:10.253Z,977.75
2023-11-18T08:18:10.553Z,977.81
2023-11-18T08:19:10.874Z,977.84
2023-11-18T08:20:11.378Z,977.86
2023-11-18T08:21:11.911Z,977.84
2023-11-18T08:22:12.319Z,977.86
2023-11-18T08:23:12.737Z,977.88
2023-11-18T08:24:13.071Z,977.92
2023-11-18T08:25:12.491Z,977.91
2023-11-18T08:26:12.746Z,977.93
2023-11-18T08:27:12.979Z,977.94
2023-11-18T08:28:13.214Z,977.95
2023-11-18T08:29:13.488Z,977.90
2023-11-18T08:30:13.680Z,977.86
2023-11-18T08:31:13.963Z,977.87
2023-11-18T08:32:14.172Z,977.91
2023-11-18T08:33:14.407Z,977.92
2023-11-18T08:34:14.631Z,977.86
2023-11-18T08:35:14.989Z,977.81
2023-11-18T08:36:15.185Z,977.86
2023-11-18T08:37:15.551Z,977.88
2023-11-18T08:38:15.855Z,977.92
2023-11-18T08:39:16.083Z,977.88
2023-11-18T08:40:16.420Z,977.97
2023-11-18T08:41:16.684Z,977.94
2023-11-18T08:42:16.893Z,977.99
2023-11-18T08:43:17.148Z,978.03
2023-11-18T08:44:23.828Z,978.06
2023-11-18T08:45:18.629Z,978.02
2023-11-18T08:46:17.998Z,978.02
2023-11-18T08:47:18.253Z,977.97
2023-11-18T08:48:18.455Z,977.97
2023-11-18T08:49:18.808Z,977.95
2023-11-18T08:50:19.143Z,977.88
2023-11-18T08:51:19.379Z,977.92
2023-11-18T08:52:19.621Z,977.93
2023-11-18T08:53:20.122Z,977.85
2023-11-18T08:54:20.184Z,977.90
2023-11-18T08:55:20.442Z,977.89
2023-11-18T08:56:20.764Z,977.92
2023-11-18T08:57:20.990Z,977.92
2023-11-18T08:58:21.703Z,977.92
2023-11-18T08:59:21.536Z,977.94
2023-11-18T09:00:21.752Z,977.93
2023-11-18T09:01:22.028Z,977.91
2023-11-18T09:02:22.267Z,977.96
2023-11-18T09:03:22.646Z,977.95
2023-11-18T09:04:22.868Z,977.97
2023-11-18T09:05:23.182Z,977.99
2023-11-18T09:06:23.389Z,977.99
2023-11-18T09:07:23.664Z,977.99
2023-11-18T09:08:23.912Z,978.05
2023-11-18T09:09:24.161Z,978.03
2023-11-18T09:10:24.404Z,978.08
2023-11-18T09:11:24.877Z,978.09
2023-11-18T09:12:24.916Z,978.05
2023-11-18T09:13:25.143Z,978.05
2023-11-18T09:14:25.438Z,978.04
2023-11-18T09:15:25.686Z,978.02
2023-11-18T09:16:26.049Z,978.01
2023-11-18T09:17:26.452Z,978.03
2023-11-18T09:18:26.619Z,978.02
2023-11-18T09:19:26.802Z,978.02
2023-11-18T09:20:27.057Z,978.08
2023-11-18T09:21:27.284Z,978.11
2023-11-18T09:22:27.533Z,978.13
2023-11-18T09:23:27.777Z,978.12
2023-11-18T09:24:28.024Z,978.10
2023-11-18T09:25:28.252Z,978.10
2023-11-18T09:26:28.688Z,978.12
2023-11-18T09:27:28.860Z,978.18
2023-11-18T09:28:29.225Z,978.11
2023-11-18T09:29:29.556Z,978.18
2023-11-18T09:30:29.800Z,978.18
2023-11-18T09:31:30.083Z,978.22
2023-11-18T09:32:30.445Z,978.19
2023-11-18T09:33:30.562Z,978.19
2023-11-18T09:34:30.798Z,978.18
2023-11-18T09:35:31.035Z,978.19
2023-11-18T09:36:31.281Z,978.12
2023-11-18T09:37:31.516Z,978.15
2023-11-18T09:38:31.775Z,978.14
2023-11-18T09:39:32.038Z,978.18
2023-11-18T09:40:32.285Z,978.16
2023-11-18T09:41:32.527Z,978.20
2023-11-18T09:42:32.773Z,978.21
2023-11-18T09:43:33.054Z,978.20
2023-11-18T09:44:33.524Z,978.18
2023-11-18T09:45:33.873Z,978.17
2023-11-18T09:46:34.855Z,978.13
2023-11-18T09:47:34.531Z,978.06
2023-11-18T09:48:34.412Z,978.05
2023-11-18T09:49:35.021Z,978.04
2023-11-18T09:50:35.046Z,978.01
2023-11-18T09:51:35.258Z,977.98
2023-11-18T09:52:35.616Z,977.99
2023-11-18T09:53:35.848Z,977.99
2023-11-18T09:54:36.101Z,978.01
2023-11-18T09:55:36.327Z,978.02
2023-11-18T09:56:36.691Z,978.00
2023-11-18T09:57:36.925Z,978.01
2023-11-18T09:58:37.369Z,978.05
2023-11-18T09:59:37.541Z,978.09
2023-11-18T10:00:37.789Z,978.10
2023-11-18T10:01:38.061Z,978.11
2023-11-18T10:02:38.414Z,978.07
2023-11-18T10:03:39.478Z,978.10
2023-11-18T10:04:38.819Z,978.05
2023-11-18T10:05:39.065Z,978.03
2023-11-18T10:06:39.307Z,978.01
2023-11-18T10:07:39.529Z,978.02
2023-11-18T10:08:39.904Z,977.99
2023-11-18T10:09:40.171Z,977.99
2023-11-18T10:10:40.382Z,977.96
2023-11-18T10:11:40.617Z,977.91
2023-11-18T10:12:40.864Z,977.96
2023-11-18T10:13:41.087Z,977.95
2023-11-18T10:14:41.447Z,977.96
2023-11-18T10:15:41.699Z,977.93
2023-11-18T10:16:42.081Z,977.90
2023-11-18T10:17:42.316Z,977.85
2023-11-18T10:18:42.674Z,977.84
2023-11-18T10:19:42.889Z,977.82
2023-11-18T10:20:43.125Z,977.81
2023-11-18T10:21:43.331Z,977.84
2023-11-18T10:22:43.702Z,977.82
2023-11-18T10:23:43.912Z,977.84
2023-11-18T10:24:44.277Z,977.89
2023-11-18T10:25:44.515Z,977.87
2023-11-18T10:26:44.751Z,977.78
2023-11-18T10:27:44.988Z,977.85
2023-11-18T10:28:45.266Z,977.86
2023-11-18T10:29:45.471Z,977.90
2023-11-18T10:30:45.835Z,977.82
2023-11-18T10:31:46.113Z,977.92
2023-11-18T10:32:46.368Z,977.90
2023-11-18T10:33:46.626Z,977.91
2023-11-18T10:34:47.054Z,977.96
2023-11-18T10:35:47.210Z,977.95
2023-11-18T10:36:47.580Z,977.96
2023-11-18T10:37:47.821Z,977.97
2023-11-18T10:38:48.057Z,977.96
2023-11-18T10:39:48.312Z,977.95
2023-11-18T10:40:48.599Z,977.91
2023-11-18T10:41:48.805Z,977.89
2023-11-18T10:42:49.057Z,977.91
2023-11-18T10:43:49.708Z,977.89
2023-11-18T10:44:49.630Z,977.90
2023-11-18T10:45:49.874Z,977.87
2023-11-18T10:46:50.155Z,977.87
2023-11-18T10:47:50.440Z,977.85
2023-11-18T10:48:50.659Z,977.80
2023-11-18T10:49:50.920Z,977.84
2023-11-18T10:50:51.242Z,977.85
2023-11-18T10:51:51.506Z,977.82
2023-11-18T10:52:51.763Z,977.82
2023-11-18T10:53:52.006Z,977.84
2023-11-18T10:54:52.269Z,977.79
2023-11-18T10:55:52.537Z,977.80
2023-11-18T10:56:52.778Z,977.81
2023-11-18T10:57:53.028Z,977.85
2023-11-18T10:58:53.304Z,977.82
2023-11-18T10:59:53.529Z,977.78
2023-11-18T11:00:53.792Z,977.80
2023-11-18T11:01:54.139Z,977.77
2023-11-18T11:02:54.437Z,977.77
2023-11-18T11:03:54.661Z,977.76
2023-11-18T11:04:54.964Z,977.74
2023-11-18T11:05:55.300Z,977.75
2023-11-18T11:06:55.615Z,977.76
2023-11-18T11:07:55.808Z,977.82
2023-11-18T11:08:56.058Z,977.83
2023-11-18T11:09:56.298Z,977.80
2023-11-18T11:10:58.443Z,977.81
2023-11-18T11:11:56.845Z,977.75
2023-11-18T11:12:57.111Z,977.77
2023-11-18T11:13:57.382Z,977.78
2023-11-18T11:14:57.620Z,977.78
2023-11-18T11:15:58.061Z,977.77
2023-11-18T11:16:58.226Z,977.75
2023-11-18T11:17:58.514Z,977.77
2023-11-18T11:18:58.722Z,977.72
2023-11-18T11:19:58.994Z,977.74
2023-11-18T11:20:59.266Z,977.73
2023-11-18T11:21:59.506Z,977.75
2023-11-18T11:22:59.923Z,977.75
2023-11-18T11:24:00.053Z,977.75
2023-11-18T11:25:00.315Z,977.75
2023-11-18T11:26:00.629Z,977.78
2023-11-18T11:27:00.868Z,977.78
2023-11-18T11:28:01.136Z,977.78
2023-11-18T11:29:01.413Z,977.78
2023-11-18T11:30:01.660Z,977.77
2023-11-18T11:31:01.987Z,977.74
2023-11-18T11:32:02.230Z,977.76
2023-11-18T11:33:02.521Z,977.74
2023-11-18T11:34:05.040Z,977.65
2023-11-18T11:35:03.206Z,977.65
2023-11-18T11:36:03.433Z,977.57
2023-11-18T11:37:03.678Z,977.61
2023-11-18T11:38:04.295Z,977.64
2023-11-18T11:39:04.243Z,977.67
2023-11-18T11:40:04.495Z,977.65
2023-11-18T11:41:04.778Z,977.73
2023-11-18T11:42:04.987Z,977.71
2023-11-18T11:43:05.249Z,977.76
2023-11-18T11:44:05.504Z,977.78
2023-11-18T11:45:05.749Z,977.78
2023-11-18T11:46:06.063Z,977.78
2023-11-18T11:47:06.404Z,977.80
2023-11-18T11:48:06.733Z,977.79
2023-11-18T11:49:06.897Z,977.72
2023-11-18T11:50:07.196Z,977.75
2023-11-18T11:51:07.416Z,977.70
2023-11-18T11:52:07.672Z,977.72
2023-11-18T11:53:07.948Z,977.68
2023-11-18T11:54:08.181Z,977.69
2023-11-18T11:55:08.459Z,977.68
2023-11-18T11:56:08.747Z,977.76
2023-11-18T11:57:08.974Z,977.76
2023-11-18T11:58:09.223Z,977.79
2023-11-18T11:59:09.501Z,977.81
2023-11-18T12:00:09.738Z,977.80
2023-11-18T12:01:10.030Z,977.76
2023-11-18T12:02:10.256Z,977.74
2023-11-18T12:03:10.573Z,977.76
2023-11-18T12:04:10.838Z,977.73
2023-11-18T12:05:11.133Z,977.73
2023-11-18T12:06:14.089Z,977.74
2023-11-18T12:07:18.702Z,977.70
2023-11-18T12:08:12.945Z,977.59
2023-11-18T12:09:12.235Z,977.62
2023-11-18T12:10:12.481Z,977.58
2023-11-18T12:11:12.770Z,977.61
2023-11-18T12:12:12.993Z,977.60
2023-11-18T12:13:13.243Z,977.57
2023-11-18T12:14:13.514Z,977.57
2023-11-18T12:15:13.940Z,977.56
2023-11-18T12:16:14.038Z,977.53
2023-11-18T12:17:14.316Z,977.53
2023-11-18T12:18:14.641Z,977.54
2023-11-18T12:19:14.873Z,977.53
2023-11-18T12:20:15.172Z,977.57
2023-11-18T12:21:15.381Z,977.55
2023-11-18T12:22:15.629Z,977.60
2023-11-18T12:23:16.251Z,977.53
2023-11-18T12:24:16.110Z,977.52
2023-11-18T12:25:16.477Z,977.57
2023-11-18T12:26:16.737Z,977.55
2023-11-18T12:27:16.968Z,977.57
2023-11-18T12:28:17.224Z,977.61
2023-11-18T12:29:17.505Z,977.62
2023-11-18T12:30:17.754Z,977.62
2023-11-18T12:31:18.430Z,977.64
2023-11-18T12:32:18.231Z,977.60